Time;durP1;ratioP1;P1;durP2;ratioP2;P2;SDS_P1;SDS_P2;PMS_P1;PMS_P2;Temp;Humidity;BMP_temperature;BMP_pressure;BME280_temperature;BME280_humidity;BME280_pressure;Samples;Min_cycle;Max_cycle;Signal;HPM_P1;HPM_P2
2024/02/29 00:00:42;;;;;;;13.83;7.97;;;;;;;;;;5000030;28;20497;-81
2024/02/29 00:03:09;;;;;;;17.40;7.90;;;;;;;;;;5000057;28;20427;-81
2024/02/29 00:05:36;;;;;;;12.88;8.57;;;;;;;;;;4984038;28;20961;-81
2024/02/29 00:08:03;;;;;;;10.45;7.20;;;;;;;;;;4994511;28;20278;-81
2024/02/29 00:10:28;;;;;;;13.45;7.18;;;;;;;;;;5003423;28;20184;-81
2024/02/29 00:12:55;;;;;;;10.90;6.07;;;;;;;;;;4966211;28;20273;-81
2024/02/29 00:15:21;;;;;;;8.93;6.13;;;;;;;;;;4999083;28;20434;-81
2024/02/29 00:17:47;;;;;;;13.55;7.07;;;;;;;;;;5001585;28;20567;-80
2024/02/29 00:20:13;;;;;;;12.35;6.95;;;;;;;;;;5000618;28;20172;-80
2024/02/29 00:22:39;;;;;;;12.27;6.77;;;;;;;;;;4986376;28;20207;-81
2024/02/29 00:25:05;;;;;;;11.82;7.40;;;;;;;;;;5000745;28;20425;-81
2024/02/29 00:27:31;;;;;;;9.75;5.97;;;;;;;;;;4998877;28;20183;-81
2024/02/29 00:29:58;;;;;;;11.23;6.87;;;;;;;;;;4998549;28;20174;-81
2024/02/29 00:32:24;;;;;;;10.32;5.72;;;;;;;;;;4998054;28;20629;-83
2024/02/29 00:34:50;;;;;;;9.10;5.75;;;;;;;;;;4997689;28;20187;-81
2024/02/29 00:37:16;;;;;;;11.07;6.40;;;;;;;;;;5000350;28;20286;-81
2024/02/29 00:39:41;;;;;;;11.80;6.57;;;;;;;;;;4998911;28;20601;-81
2024/02/29 00:42:08;;;;;;;13.27;6.60;;;;;;;;;;4998825;28;20418;-81
2024/02/29 00:44:33;;;;;;;9.48;6.25;;;;;;;;;;4997577;28;20788;-81
2024/02/29 00:47:00;;;;;;;12.73;6.50;;;;;;;;;;4999830;28;20266;-81
2024/02/29 00:49:26;;;;;;;11.27;6.50;;;;;;;;;;5001407;28;20829;-81
2024/02/29 00:51:52;;;;;;;11.13;5.95;;;;;;;;;;4997724;28;20595;-81
2024/02/29 00:54:18;;;;;;;13.32;6.78;;;;;;;;;;4997611;28;20192;-81
2024/02/29 00:56:44;;;;;;;14.13;7.80;;;;;;;;;;4980782;28;20211;-82
2024/02/29 00:59:10;;;;;;;13.90;7.33;;;;;;;;;;4995552;28;20536;-81
2024/02/29 01:01:36;;;;;;;11.53;6.47;;;;;;;;;;4998102;28;20414;-81
2024/02/29 01:04:03;;;;;;;10.63;6.68;;;;;;;;;;4979979;28;20419;-81
2024/02/29 01:06:30;;;;;;;14.07;6.50;;;;;;;;;;4998642;28;20683;-81
2024/02/29 01:08:57;;;;;;;11.20;6.35;;;;;;;;;;4999565;28;20669;-81
2024/02/29 01:11:23;;;;;;;11.52;7.40;;;;;;;;;;4973812;28;20225;-81
2024/02/29 01:13:49;;;;;;;10.90;7.47;;;;;;;;;;4976747;28;20209;-81
2024/02/29 01:16:14;;;;;;;14.00;7.20;;;;;;;;;;4993548;28;20433;-80
2024/02/29 01:18:40;;;;;;;12.73;7.75;;;;;;;;;;4986656;28;20419;-81
2024/02/29 01:21:06;;;;;;;14.98;7.03;;;;;;;;;;4998380;28;20171;-81
2024/02/29 01:23:32;;;;;;;13.33;7.47;;;;;;;;;;4996902;28;20557;-81
2024/02/29 01:25:58;;;;;;;14.32;7.50;;;;;;;;;;4996854;28;20516;-81
2024/02/29 01:28:24;;;;;;;12.83;6.93;;;;;;;;;;4996706;28;20193;-81
2024/02/29 01:30:50;;;;;;;9.57;6.23;;;;;;;;;;4998206;28;20920;-81
2024/02/29 01:33:16;;;;;;;11.03;7.13;;;;;;;;;;4998913;28;20878;-81
2024/02/29 01:35:42;;;;;;;12.63;7.13;;;;;;;;;;4981941;28;20584;-81
2024/02/29 01:38:08;;;;;;;11.63;7.05;;;;;;;;;;4986300;28;21051;-81
2024/02/29 01:40:34;;;;;;;10.90;6.80;;;;;;;;;;4996276;28;20189;-81
2024/02/29 01:43:01;;;;;;;12.93;7.90;;;;;;;;;;4991741;28;20481;-81
2024/02/29 01:45:27;;;;;;;13.55;8.15;;;;;;;;;;5000723;28;20178;-81
2024/02/29 01:47:53;;;;;;;13.02;7.10;;;;;;;;;;4997887;28;20273;-81
2024/02/29 01:50:19;;;;;;;12.90;7.50;;;;;;;;;;4994102;28;20213;-81
2024/02/29 01:52:46;;;;;;;13.80;7.40;;;;;;;;;;4996636;28;20912;-81
2024/02/29 01:55:12;;;;;;;12.43;8.23;;;;;;;;;;4999655;28;20192;-82
2024/02/29 01:57:38;;;;;;;15.27;8.82;;;;;;;;;;4997505;28;20209;-81
2024/02/29 02:00:05;;;;;;;13.88;8.65;;;;;;;;;;5003937;28;20511;-80
2024/02/29 02:02:31;;;;;;;13.20;8.60;;;;;;;;;;4997859;28;20619;-81
2024/02/29 02:04:57;;;;;;;14.60;8.32;;;;;;;;;;4983033;28;20178;-81
2024/02/29 02:07:24;;;;;;;15.57;8.65;;;;;;;;;;4996364;28;20254;-81
2024/02/29 02:09:50;;;;;;;15.30;9.02;;;;;;;;;;4997345;28;20172;-81
2024/02/29 02:12:16;;;;;;;15.05;9.50;;;;;;;;;;4986232;28;20214;-81
2024/02/29 02:14:42;;;;;;;18.73;8.57;;;;;;;;;;4995206;28;20192;-81
2024/02/29 02:17:09;;;;;;;15.48;8.70;;;;;;;;;;4993283;28;20479;-81
2024/02/29 02:19:35;;;;;;;15.50;8.85;;;;;;;;;;4995390;28;20181;-81
2024/02/29 02:22:04;;;;;;;15.70;9.60;;;;;;;;;;4982466;28;20267;-80
2024/02/29 02:24:30;;;;;;;19.02;9.05;;;;;;;;;;4997653;28;20410;-81
2024/02/29 02:26:55;;;;;;;15.38;9.38;;;;;;;;;;4995633;28;20233;-81
2024/02/29 02:29:21;;;;;;;17.30;9.77;;;;;;;;;;4996926;28;20576;-81
2024/02/29 02:31:47;;;;;;;20.50;10.63;;;;;;;;;;4990288;28;20429;-81
2024/02/29 02:34:13;;;;;;;16.37;9.90;;;;;;;;;;4998974;28;20458;-82
2024/02/29 02:36:39;;;;;;;22.80;11.13;;;;;;;;;;5001212;28;20497;-81
2024/02/29 02:39:05;;;;;;;16.60;9.98;;;;;;;;;;4995311;28;20419;-82
2024/02/29 02:41:31;;;;;;;21.47;10.50;;;;;;;;;;4994258;28;20561;-82
2024/02/29 02:43:57;;;;;;;19.33;11.13;;;;;;;;;;4995820;28;20437;-82
2024/02/29 02:46:24;;;;;;;18.73;10.97;;;;;;;;;;4998076;28;20206;-82
2024/02/29 02:48:50;;;;;;;21.48;11.15;;;;;;;;;;4999473;28;20421;-82
2024/02/29 02:51:16;;;;;;;18.83;10.43;;;;;;;;;;4997497;28;20186;-80
2024/02/29 02:53:42;;;;;;;18.00;10.75;;;;;;;;;;4995232;28;20429;-82
2024/02/29 02:56:08;;;;;;;24.27;10.43;;;;;;;;;;4999672;28;20527;-82
2024/02/29 02:58:35;;;;;;;22.77;11.33;;;;;;;;;;5002373;28;20208;-81
2024/02/29 03:01:01;;;;;;;20.92;11.10;;;;;;;;;;5003215;28;20420;-82
2024/02/29 03:03:27;;;;;;;21.75;10.80;;;;;;;;;;4973917;28;20187;-82
2024/02/29 03:05:53;;;;;;;18.90;11.07;;;;;;;;;;4977598;28;20179;-82
2024/02/29 03:08:20;;;;;;;17.07;10.40;;;;;;;;;;4980063;28;20465;-82
2024/02/29 03:10:47;;;;;;;21.33;11.80;;;;;;;;;;4991374;28;20436;-82
2024/02/29 03:13:13;;;;;;;21.95;10.57;;;;;;;;;;4995170;28;20175;-83
2024/02/29 03:15:40;;;;;;;18.70;9.77;;;;;;;;;;4994883;28;20261;-82
2024/02/29 03:18:07;;;;;;;22.48;10.25;;;;;;;;;;4985130;28;20228;-82
2024/02/29 03:20:33;;;;;;;21.52;11.02;;;;;;;;;;4995527;28;20181;-82
2024/02/29 03:22:59;;;;;;;24.67;12.83;;;;;;;;;;4996412;28;20322;-82
2024/02/29 03:25:25;;;;;;;20.65;12.02;;;;;;;;;;4997610;28;20789;-81
2024/02/29 03:27:51;;;;;;;19.17;11.53;;;;;;;;;;4996961;28;20178;-82
2024/02/29 03:30:18;;;;;;;27.55;12.73;;;;;;;;;;4992430;28;20488;-82
2024/02/29 03:32:44;;;;;;;22.20;12.77;;;;;;;;;;4997216;28;20502;-82
2024/02/29 03:35:10;;;;;;;22.80;13.20;;;;;;;;;;4996282;28;20187;-83
2024/02/29 03:37:36;;;;;;;19.73;12.25;;;;;;;;;;4993299;28;20496;-83
2024/02/29 03:40:03;;;;;;;20.77;13.07;;;;;;;;;;4978359;28;20556;-82
2024/02/29 03:42:29;;;;;;;20.67;10.68;;;;;;;;;;4992958;28;20182;-82
2024/02/29 03:44:55;;;;;;;22.60;12.68;;;;;;;;;;4994566;28;20181;-83
2024/02/29 03:47:21;;;;;;;22.47;13.33;;;;;;;;;;5003939;28;20190;-82
2024/02/29 03:49:47;;;;;;;28.95;14.48;;;;;;;;;;4999526;28;20456;-84
2024/02/29 03:52:13;;;;;;;27.40;13.05;;;;;;;;;;4995098;28;20257;-83
2024/02/29 03:54:40;;;;;;;25.50;12.05;;;;;;;;;;4997138;28;20185;-83
2024/02/29 03:57:06;;;;;;;23.35;12.40;;;;;;;;;;4967472;28;20289;-83
2024/02/29 03:59:32;;;;;;;23.30;12.70;;;;;;;;;;5002076;28;20213;-82
2024/02/29 04:01:59;;;;;;;29.93;12.23;;;;;;;;;;4995426;28;20445;-83
2024/02/29 04:04:26;;;;;;;23.52;11.45;;;;;;;;;;5004625;28;20567;-82
2024/02/29 04:06:52;;;;;;;21.58;12.30;;;;;;;;;;4994352;28;20280;-83
2024/02/29 04:09:18;;;;;;;23.00;11.95;;;;;;;;;;4980110;28;20273;-83
2024/02/29 04:11:44;;;;;;;21.77;11.52;;;;;;;;;;4995494;28;20258;-82
2024/02/29 04:14:10;;;;;;;22.85;11.75;;;;;;;;;;4991843;28;20183;-83
2024/02/29 04:16:37;;;;;;;19.58;9.98;;;;;;;;;;4987304;28;20289;-82
2024/02/29 04:19:04;;;;;;;21.70;13.65;;;;;;;;;;5000256;28;20247;-83
2024/02/29 04:21:31;;;;;;;23.08;11.63;;;;;;;;;;4978123;28;20180;-83
2024/02/29 04:23:57;;;;;;;20.02;11.60;;;;;;;;;;4993233;28;20175;-83
2024/02/29 04:26:24;;;;;;;14.73;8.90;;;;;;;;;;4987990;28;20183;-82
2024/02/29 04:28:50;;;;;;;16.70;9.73;;;;;;;;;;4994566;28;20215;-81
2024/02/29 04:31:16;;;;;;;16.58;10.48;;;;;;;;;;4996204;28;20174;-82
2024/02/29 04:33:43;;;;;;;18.60;10.57;;;;;;;;;;4993459;28;20182;-83
2024/02/29 04:36:09;;;;;;;19.92;11.52;;;;;;;;;;4996340;28;20171;-82
2024/02/29 04:38:35;;;;;;;19.30;9.10;;;;;;;;;;5005666;28;20254;-82
2024/02/29 04:41:01;;;;;;;16.42;9.35;;;;;;;;;;4982187;28;20899;-82
2024/02/29 04:43:28;;;;;;;15.37;7.50;;;;;;;;;;4991653;28;20281;-83
2024/02/29 04:45:55;;;;;;;18.75;10.48;;;;;;;;;;5001002;28;20430;-83
2024/02/29 04:48:21;;;;;;;16.67;8.65;;;;;;;;;;4985953;28;20189;-84
2024/02/29 04:50:47;;;;;;;15.73;9.10;;;;;;;;;;4995466;28;20223;-82
2024/02/29 04:53:14;;;;;;;15.15;9.60;;;;;;;;;;4997436;28;20178;-82
2024/02/29 04:55:40;;;;;;;21.52;8.82;;;;;;;;;;4983173;28;20645;-82
2024/02/29 04:58:06;;;;;;;15.40;9.60;;;;;;;;;;4998855;28;20290;-83
2024/02/29 05:00:32;;;;;;;15.30;8.40;;;;;;;;;;4994917;28;20437;-82
2024/02/29 05:02:58;;;;;;;15.25;8.45;;;;;;;;;;4997081;28;20427;-83
2024/02/29 05:05:24;;;;;;;15.35;8.57;;;;;;;;;;4998321;28;20269;-81
2024/02/29 05:07:50;;;;;;;22.63;10.35;;;;;;;;;;4981647;28;20233;-84
2024/02/29 05:10:16;;;;;;;16.52;9.90;;;;;;;;;;4981493;28;20185;-83
2024/02/29 05:12:42;;;;;;;17.00;10.15;;;;;;;;;;4998163;28;20201;-82
2024/02/29 05:15:08;;;;;;;15.80;10.07;;;;;;;;;;5007102;28;20178;-83
2024/02/29 05:17:34;;;;;;;17.13;9.05;;;;;;;;;;4998058;28;20821;-83
2024/02/29 05:20:00;;;;;;;15.17;8.03;;;;;;;;;;4998348;28;20185;-83
2024/02/29 05:22:26;;;;;;;16.83;9.13;;;;;;;;;;4997846;28;20905;-81
2024/02/29 05:24:52;;;;;;;17.85;10.88;;;;;;;;;;4981877;28;20854;-83
2024/02/29 05:27:18;;;;;;;18.17;9.55;;;;;;;;;;4999668;28;20210;-83
2024/02/29 05:29:44;;;;;;;17.67;10.33;;;;;;;;;;4990353;28;20182;-82
2024/02/29 05:32:10;;;;;;;16.07;10.33;;;;;;;;;;4998076;28;20419;-82
2024/02/29 05:34:36;;;;;;;17.35;9.77;;;;;;;;;;4996281;28;20512;-82
2024/02/29 05:37:02;;;;;;;18.60;11.30;;;;;;;;;;4996616;28;20337;-82
2024/02/29 05:39:28;;;;;;;16.73;9.65;;;;;;;;;;4997656;28;20425;-82
2024/02/29 05:41:56;;;;;;;17.38;9.95;;;;;;;;;;4998045;28;20273;-82
2024/02/29 05:44:22;;;;;;;15.60;8.98;;;;;;;;;;4982409;28;20191;-84
2024/02/29 05:46:48;;;;;;;17.50;9.63;;;;;;;;;;4983828;28;20235;-82
2024/02/29 05:49:14;;;;;;;21.40;9.80;;;;;;;;;;4984314;28;20180;-83
2024/02/29 05:51:40;;;;;;;16.90;10.98;;;;;;;;;;4979924;28;20649;-82
2024/02/29 05:54:06;;;;;;;13.57;8.77;;;;;;;;;;4986941;28;20180;-82
2024/02/29 05:56:32;;;;;;;15.75;9.32;;;;;;;;;;4999011;28;20419;-82
2024/02/29 05:58:58;;;;;;;16.08;9.35;;;;;;;;;;5009867;28;20182;-83
2024/02/29 06:01:24;;;;;;;19.13;11.00;;;;;;;;;;4995722;28;20639;-82
2024/02/29 06:03:50;;;;;;;18.75;10.20;;;;;;;;;;4996452;28;20188;-82
2024/02/29 06:06:16;;;;;;;17.15;10.40;;;;;;;;;;4996031;28;20241;-82
2024/02/29 06:08:42;;;;;;;15.65;9.30;;;;;;;;;;4964329;28;20218;-82
2024/02/29 06:11:12;;;;;;;18.60;9.52;;;;;;;;;;4980224;28;20191;-84
2024/02/29 06:13:40;;;;;;;20.88;10.90;;;;;;;;;;4995799;28;20697;-82
2024/02/29 06:16:06;;;;;;;21.08;9.77;;;;;;;;;;4997538;28;20229;-84
2024/02/29 06:18:32;;;;;;;17.88;10.07;;;;;;;;;;4995277;28;20211;-83
2024/02/29 06:20:58;;;;;;;17.05;10.57;;;;;;;;;;4991370;28;20176;-83
2024/02/29 06:23:24;;;;;;;16.60;10.53;;;;;;;;;;4987733;28;20223;-82
2024/02/29 06:25:50;;;;;;;15.03;10.03;;;;;;;;;;4974811;28;20767;-83
2024/02/29 06:28:17;;;;;;;13.82;9.60;;;;;;;;;;5001436;28;20478;-83
2024/02/29 06:30:43;;;;;;;15.40;10.30;;;;;;;;;;4983581;28;20206;-83
2024/02/29 06:33:09;;;;;;;15.05;9.27;;;;;;;;;;4996894;28;20177;-82
2024/02/29 06:35:35;;;;;;;16.10;9.75;;;;;;;;;;4997317;28;20531;-83
2024/02/29 06:38:01;;;;;;;18.45;10.93;;;;;;;;;;4997858;28;20743;-83
2024/02/29 06:40:27;;;;;;;17.30;11.15;;;;;;;;;;4982220;28;20633;-83
2024/02/29 06:42:53;;;;;;;17.27;9.37;;;;;;;;;;4995079;28;20200;-83
2024/02/29 06:45:19;;;;;;;19.60;11.32;;;;;;;;;;4997302;28;20923;-83
2024/02/29 06:47:45;;;;;;;17.43;10.47;;;;;;;;;;5002596;28;20253;-83
2024/02/29 06:50:12;;;;;;;18.40;10.07;;;;;;;;;;4987094;28;20394;-82
2024/02/29 06:52:38;;;;;;;19.80;10.55;;;;;;;;;;5000701;28;20171;-82
2024/02/29 06:55:07;;;;;;;18.30;10.68;;;;;;;;;;4982662;28;20238;-83
2024/02/29 06:57:34;;;;;;;18.42;9.63;;;;;;;;;;4996443;28;20253;-82
2024/02/29 07:00:00;;;;;;;15.13;10.25;;;;;;;;;;4994441;28;20513;-83
2024/02/29 07:02:26;;;;;;;21.02;11.40;;;;;;;;;;4995397;28;20233;-84
2024/02/29 07:04:52;;;;;;;23.27;10.65;;;;;;;;;;4994823;28;20212;-83
2024/02/29 07:07:19;;;;;;;20.67;11.50;;;;;;;;;;4986600;28;20591;-83
2024/02/29 07:09:45;;;;;;;17.17;10.50;;;;;;;;;;5007259;28;20536;-83
2024/02/29 07:12:11;;;;;;;18.20;12.02;;;;;;;;;;4996824;28;20163;-83
2024/02/29 07:14:37;;;;;;;17.95;11.30;;;;;;;;;;4998739;28;20184;-82
2024/02/29 07:17:05;;;;;;;16.90;10.30;;;;;;;;;;5000721;28;20682;-83
2024/02/29 07:19:31;;;;;;;16.50;10.85;;;;;;;;;;4988503;28;20469;-83
2024/02/29 07:21:57;;;;;;;16.40;11.15;;;;;;;;;;4988591;28;20175;-84
2024/02/29 07:24:23;;;;;;;16.23;11.63;;;;;;;;;;4996996;28;20190;-83
2024/02/29 07:26:49;;;;;;;17.95;10.18;;;;;;;;;;5002616;28;20434;-82
2024/02/29 07:29:15;;;;;;;16.75;9.45;;;;;;;;;;4995022;28;20167;-85
2024/02/29 07:31:42;;;;;;;17.08;9.20;;;;;;;;;;4993948;28;20175;-83
2024/02/29 07:34:10;;;;;;;13.75;9.10;;;;;;;;;;4995619;28;20172;-82
2024/02/29 07:36:37;;;;;;;15.30;9.95;;;;;;;;;;4975465;28;20735;-82
2024/02/29 07:39:03;;;;;;;16.98;10.57;;;;;;;;;;4983430;28;20178;-82
2024/02/29 07:41:29;;;;;;;16.15;10.23;;;;;;;;;;4999389;28;20178;-82
2024/02/29 07:43:55;;;;;;;15.00;10.13;;;;;;;;;;4998805;28;20609;-82
2024/02/29 07:46:21;;;;;;;15.63;9.38;;;;;;;;;;4997150;28;20523;-82
2024/02/29 07:48:47;;;;;;;11.50;7.80;;;;;;;;;;4998586;28;20196;-83
2024/02/29 07:51:17;;;;;;;15.68;8.35;;;;;;;;;;5004061;28;20191;-83
2024/02/29 07:53:43;;;;;;;15.10;8.52;;;;;;;;;;4994313;28;20226;-82
2024/02/29 07:56:09;;;;;;;13.20;8.90;;;;;;;;;;4993760;28;20188;-83
2024/02/29 07:58:35;;;;;;;16.08;10.43;;;;;;;;;;4999127;28;20493;-82
2024/02/29 08:01:02;;;;;;;9.93;7.80;;;;;;;;;;4991902;28;20599;-82
2024/02/29 08:03:28;;;;;;;13.88;9.10;;;;;;;;;;4995821;28;20200;-82
2024/02/29 08:05:55;;;;;;;12.18;7.57;;;;;;;;;;4997503;28;20175;-82
2024/02/29 08:08:21;;;;;;;11.15;7.68;;;;;;;;;;4994459;28;20190;-82
2024/02/29 08:10:47;;;;;;;11.18;7.70;;;;;;;;;;4996574;28;20181;-81
2024/02/29 08:13:13;;;;;;;11.47;7.83;;;;;;;;;;4999844;28;20242;-82
2024/02/29 08:15:39;;;;;;;11.83;8.23;;;;;;;;;;5005544;28;20418;-82
2024/02/29 08:18:06;;;;;;;11.60;7.20;;;;;;;;;;4999350;28;20600;-83
2024/02/29 08:20:32;;;;;;;11.60;7.63;;;;;;;;;;5001743;28;20933;-82
2024/02/29 08:22:58;;;;;;;13.27;7.67;;;;;;;;;;4988675;28;20174;-83
2024/02/29 08:25:26;;;;;;;12.35;8.55;;;;;;;;;;4999307;28;20518;-83
2024/02/29 08:27:52;;;;;;;11.38;7.18;;;;;;;;;;5000783;28;20171;-84
2024/02/29 08:30:18;;;;;;;10.65;6.93;;;;;;;;;;5005528;28;20201;-83
2024/02/29 08:32:44;;;;;;;9.82;6.90;;;;;;;;;;5007219;28;20175;-83
2024/02/29 08:35:10;;;;;;;10.50;6.57;;;;;;;;;;4981762;28;20206;-83
2024/02/29 08:37:36;;;;;;;7.45;5.80;;;;;;;;;;4999026;28;20193;-80
2024/02/29 08:40:04;;;;;;;8.48;5.88;;;;;;;;;;4995239;28;20171;-83
2024/02/29 08:42:30;;;;;;;9.38;6.38;;;;;;;;;;5001674;28;20207;-83
2024/02/29 08:44:57;;;;;;;10.18;7.30;;;;;;;;;;5000576;28;20190;-83
2024/02/29 08:47:23;;;;;;;9.48;6.30;;;;;;;;;;4995878;28;20254;-84
2024/02/29 08:49:49;;;;;;;10.77;6.45;;;;;;;;;;4998969;28;20175;-83
2024/02/29 08:52:15;;;;;;;10.20;6.82;;;;;;;;;;4997849;28;20175;-83
2024/02/29 08:54:41;;;;;;;9.03;7.10;;;;;;;;;;5002779;28;20173;-83
2024/02/29 08:57:07;;;;;;;9.27;6.90;;;;;;;;;;4999295;28;20465;-83
2024/02/29 08:59:33;;;;;;;9.18;6.10;;;;;;;;;;4999083;28;20202;-83
2024/02/29 09:02:03;;;;;;;10.57;6.35;;;;;;;;;;4983558;28;20231;-83
2024/02/29 09:04:29;;;;;;;10.23;6.50;;;;;;;;;;4999159;28;20246;-82
2024/02/29 09:06:55;;;;;;;9.52;6.85;;;;;;;;;;4998450;28;20230;-83
2024/02/29 09:09:21;;;;;;;10.67;7.20;;;;;;;;;;4997589;28;20578;-83
2024/02/29 09:11:47;;;;;;;9.07;5.83;;;;;;;;;;4998130;28;20442;-83
2024/02/29 09:14:13;;;;;;;9.23;5.87;;;;;;;;;;4998622;28;20522;-83
2024/02/29 09:16:39;;;;;;;9.68;5.90;;;;;;;;;;4997703;28;20857;-83
2024/02/29 09:19:06;;;;;;;9.73;5.80;;;;;;;;;;4998982;28;20250;-83
2024/02/29 09:21:32;;;;;;;8.48;6.03;;;;;;;;;;5005593;28;20438;-83
2024/02/29 09:23:58;;;;;;;10.17;6.53;;;;;;;;;;4998421;28;20235;-83
2024/02/29 09:26:25;;;;;;;9.65;6.25;;;;;;;;;;4997802;28;20461;-83
2024/02/29 09:28:51;;;;;;;9.75;6.28;;;;;;;;;;4998058;28;20171;-83
2024/02/29 09:31:17;;;;;;;7.73;5.47;;;;;;;;;;5005980;28;20184;-83
2024/02/29 09:33:43;;;;;;;10.37;6.00;;;;;;;;;;4987973;28;20489;-83
2024/02/29 09:36:10;;;;;;;9.30;5.45;;;;;;;;;;4991384;28;20468;-82
2024/02/29 09:38:36;;;;;;;7.75;5.10;;;;;;;;;;5001904;28;20197;-83
2024/02/29 09:41:04;;;;;;;12.20;5.93;;;;;;;;;;5002623;28;20186;-82
2024/02/29 09:43:30;;;;;;;9.48;5.75;;;;;;;;;;4982130;28;20271;-81
2024/02/29 09:45:58;;;;;;;8.23;5.20;;;;;;;;;;4997860;28;20171;-83
2024/02/29 09:48:25;;;;;;;6.75;5.50;;;;;;;;;;4997851;28;20282;-83
2024/02/29 09:50:52;;;;;;;6.60;4.75;;;;;;;;;;4997805;28;20168;-83
2024/02/29 09:53:19;;;;;;;8.07;4.75;;;;;;;;;;4994628;28;20258;-83
2024/02/29 09:55:45;;;;;;;9.75;4.70;;;;;;;;;;5002591;28;20175;-84
2024/02/29 09:58:17;;;;;;;7.07;4.97;;;;;;;;;;4997381;28;20202;-83
2024/02/29 10:00:46;;;;;;;4.85;3.38;;;;;;;;;;5001453;28;20507;-83
2024/02/29 10:03:13;;;;;;;6.75;4.32;;;;;;;;;;4998086;28;20176;-83
2024/02/29 10:05:39;;;;;;;4.68;3.20;;;;;;;;;;4999471;28;20185;-83
2024/02/29 10:08:05;;;;;;;6.20;4.03;;;;;;;;;;4998973;28;20242;-83
2024/02/29 10:10:32;;;;;;;4.10;3.60;;;;;;;;;;4997406;28;20202;-83
2024/02/29 10:12:58;;;;;;;4.43;3.35;;;;;;;;;;4996332;28;20183;-84
2024/02/29 10:15:27;;;;;;;9.43;4.18;;;;;;;;;;4997092;28;20168;-81
2024/02/29 10:17:54;;;;;;;5.00;3.95;;;;;;;;;;4996428;28;20203;-83
2024/02/29 10:20:21;;;;;;;5.40;4.15;;;;;;;;;;4999661;28;20171;-83
2024/02/29 10:22:49;;;;;;;4.65;3.20;;;;;;;;;;4995301;28;20171;-83
2024/02/29 10:25:15;;;;;;;4.73;2.90;;;;;;;;;;4996764;28;20186;-83
2024/02/29 10:27:41;;;;;;;4.20;3.10;;;;;;;;;;4995166;28;20741;-83
2024/02/29 10:30:17;;;;;;;11.07;3.87;;;;;;;;;;4996248;28;20427;-82
2024/02/29 10:32:43;;;;;;;4.40;3.13;;;;;;;;;;4980707;28;20923;-80
2024/02/29 10:35:23;;;;;;;7.07;4.20;;;;;;;;;;4993663;28;20431;-84
2024/02/29 10:37:53;;;;;;;4.50;3.30;;;;;;;;;;4981365;28;20462;-83
2024/02/29 10:40:19;;;;;;;5.23;4.10;;;;;;;;;;4996547;28;20465;-83
2024/02/29 10:42:50;;;;;;;8.73;3.50;;;;;;;;;;4999576;28;20781;-83
2024/02/29 10:45:16;;;;;;;5.97;3.70;;;;;;;;;;4994390;28;20421;-84
2024/02/29 10:48:13;;;;;;;6.40;4.27;;;;;;;;;;4991185;28;20521;-83
2024/02/29 10:50:50;;;;;;;7.50;4.33;;;;;;;;;;4995102;28;20898;-84
2024/02/29 10:53:23;;;;;;;6.60;4.27;;;;;;;;;;4994879;28;20504;-83
2024/02/29 10:55:50;;;;;;;6.20;4.47;;;;;;;;;;4996212;28;20446;-84
2024/02/29 10:58:37;;;;;;;7.80;3.63;;;;;;;;;;4995590;28;20493;-83
2024/02/29 11:01:03;;;;;;;6.80;3.93;;;;;;;;;;4996140;28;20429;-84
2024/02/29 11:03:29;;;;;;;4.20;3.33;;;;;;;;;;4998195;28;20921;-84
2024/02/29 11:05:56;;;;;;;5.57;4.43;;;;;;;;;;4995949;28;20823;-83
2024/02/29 11:08:22;;;;;;;4.87;3.70;;;;;;;;;;4997960;28;20407;-84
2024/02/29 11:10:48;;;;;;;4.60;3.40;;;;;;;;;;5000818;28;20441;-83
2024/02/29 11:13:21;;;;;;;5.53;3.27;;;;;;;;;;4999254;28;20461;-84
2024/02/29 11:15:50;;;;;;;5.30;3.50;;;;;;;;;;4995714;28;20426;-83
2024/02/29 11:18:21;;;;;;;5.23;3.73;;;;;;;;;;4979072;28;20470;-83
2024/02/29 11:20:46;;;;;;;6.40;3.07;;;;;;;;;;4987982;28;20837;-83
2024/02/29 11:23:15;;;;;;;4.90;3.90;;;;;;;;;;4993975;28;20450;-83
2024/02/29 11:25:44;;;;;;;4.37;3.37;;;;;;;;;;4981340;28;20436;-84
2024/02/29 11:28:11;;;;;;;3.90;2.73;;;;;;;;;;4998080;28;20418;-83
2024/02/29 11:30:37;;;;;;;4.00;3.10;;;;;;;;;;4996191;28;20407;-82
2024/02/29 11:33:09;;;;;;;4.63;2.67;;;;;;;;;;4995475;28;20179;-83
2024/02/29 11:35:35;;;;;;;7.10;3.28;;;;;;;;;;4995202;28;20172;-84
2024/02/29 11:38:02;;;;;;;4.50;3.20;;;;;;;;;;5000021;28;20230;-82
2024/02/29 11:40:31;;;;;;;5.30;3.13;;;;;;;;;;4981840;28;20498;-83
2024/02/29 11:42:59;;;;;;;4.65;3.00;;;;;;;;;;4991789;28;20238;-84
2024/02/29 11:45:25;;;;;;;5.03;3.78;;;;;;;;;;4996026;28;20207;-84
2024/02/29 11:47:52;;;;;;;5.80;3.70;;;;;;;;;;4995107;28;20916;-83
2024/02/29 11:50:18;;;;;;;2.80;2.50;;;;;;;;;;4978061;28;20442;-83
2024/02/29 11:52:44;;;;;;;3.67;2.90;;;;;;;;;;4995731;28;20234;-82
2024/02/29 11:55:10;;;;;;;3.95;3.03;;;;;;;;;;5003264;28;20190;-83
2024/02/29 11:57:36;;;;;;;4.23;2.53;;;;;;;;;;4994711;28;20203;-83
2024/02/29 12:00:04;;;;;;;4.10;2.80;;;;;;;;;;4994625;28;20422;-84
2024/02/29 12:02:30;;;;;;;3.25;2.83;;;;;;;;;;5000766;28;20420;-84
2024/02/29 12:04:58;;;;;;;6.60;3.40;;;;;;;;;;4998415;28;20172;-84
2024/02/29 12:07:25;;;;;;;5.88;2.78;;;;;;;;;;4994539;28;20553;-85
2024/02/29 12:09:51;;;;;;;4.18;3.28;;;;;;;;;;4995633;28;20541;-82
2024/02/29 12:12:17;;;;;;;3.83;2.92;;;;;;;;;;4996670;28;20844;-83
2024/02/29 12:14:43;;;;;;;3.50;2.58;;;;;;;;;;4999822;28;20209;-83
2024/02/29 12:17:09;;;;;;;5.30;2.88;;;;;;;;;;4998929;28;20203;-84
2024/02/29 12:19:35;;;;;;;4.30;3.03;;;;;;;;;;4996510;28;20195;-85
2024/02/29 12:22:02;;;;;;;3.93;2.80;;;;;;;;;;4993779;28;20186;-82
2024/02/29 12:24:29;;;;;;;5.35;3.42;;;;;;;;;;4994989;28;20483;-83
2024/02/29 12:26:55;;;;;;;5.27;3.87;;;;;;;;;;4994994;28;20206;-83
2024/02/29 12:29:22;;;;;;;6.43;4.33;;;;;;;;;;4996228;28;20764;-84
2024/02/29 12:31:50;;;;;;;4.40;3.03;;;;;;;;;;4991757;28;20423;-84
2024/02/29 12:34:17;;;;;;;3.75;3.38;;;;;;;;;;4999266;28;20410;-85
2024/02/29 12:36:46;;;;;;;3.95;2.55;;;;;;;;;;5000738;28;20209;-84
2024/02/29 12:39:17;;;;;;;4.75;3.35;;;;;;;;;;4996046;28;20195;-84
2024/02/29 12:41:43;;;;;;;5.17;3.27;;;;;;;;;;4994784;28;20176;-83
2024/02/29 12:44:10;;;;;;;7.07;3.90;;;;;;;;;;4992899;28;20529;-83
2024/02/29 12:46:36;;;;;;;5.23;3.40;;;;;;;;;;4978553;28;20527;-84
2024/02/29 12:49:03;;;;;;;3.60;3.00;;;;;;;;;;4994127;28;20429;-82
2024/02/29 12:51:29;;;;;;;4.17;3.47;;;;;;;;;;4994321;28;20440;-84
2024/02/29 12:53:55;;;;;;;3.83;2.60;;;;;;;;;;4972108;28;20445;-83
2024/02/29 12:56:21;;;;;;;3.20;2.80;;;;;;;;;;4994507;28;20499;-82
2024/02/29 12:58:47;;;;;;;3.83;2.97;;;;;;;;;;4996932;28;20954;-85
2024/02/29 13:01:14;;;;;;;4.13;3.10;;;;;;;;;;4997512;28;20473;-84
2024/02/29 13:03:40;;;;;;;4.90;3.20;;;;;;;;;;4995445;28;20518;-84
2024/02/29 13:06:06;;;;;;;4.85;3.17;;;;;;;;;;4998346;28;20431;-84
2024/02/29 13:08:33;;;;;;;3.90;2.60;;;;;;;;;;4998875;28;20539;-84
2024/02/29 13:10:59;;;;;;;3.87;2.83;;;;;;;;;;4998087;28;20418;-84
2024/02/29 13:13:25;;;;;;;2.93;2.63;;;;;;;;;;4987332;28;20549;-85
2024/02/29 13:15:51;;;;;;;4.10;2.70;;;;;;;;;;4990109;28;20431;-85
2024/02/29 13:18:17;;;;;;;4.17;2.73;;;;;;;;;;4997113;28;20474;-84
2024/02/29 13:20:43;;;;;;;9.20;2.90;;;;;;;;;;4997887;28;20767;-83
2024/02/29 13:23:09;;;;;;;3.60;2.40;;;;;;;;;;4982429;28;20423;-84
2024/02/29 13:25:35;;;;;;;5.00;2.70;;;;;;;;;;4996837;28;20430;-85
2024/02/29 13:28:02;;;;;;;4.77;2.53;;;;;;;;;;4996979;28;20437;-83
2024/02/29 13:30:28;;;;;;;3.13;2.50;;;;;;;;;;5003918;28;20430;-84
2024/02/29 13:32:54;;;;;;;4.83;2.60;;;;;;;;;;5001620;28;20206;-81
2024/02/29 13:35:20;;;;;;;2.47;2.20;;;;;;;;;;4985308;28;20428;-84
2024/02/29 13:37:46;;;;;;;4.37;2.53;;;;;;;;;;4994656;28;20955;-85
2024/02/29 13:40:12;;;;;;;2.67;1.90;;;;;;;;;;4998087;28;20490;-83
2024/02/29 13:42:38;;;;;;;2.37;1.97;;;;;;;;;;4996947;28;20410;-84
2024/02/29 13:45:05;;;;;;;3.93;1.80;;;;;;;;;;4997786;28;20751;-83
2024/02/29 13:47:31;;;;;;;2.43;1.90;;;;;;;;;;4996791;28;20434;-84
2024/02/29 13:49:58;;;;;;;2.80;2.10;;;;;;;;;;4995684;28;20751;-83
2024/02/29 13:52:24;;;;;;;3.50;1.70;;;;;;;;;;4996789;28;20450;-84
2024/02/29 13:54:51;;;;;;;2.20;1.73;;;;;;;;;;4996460;28;20471;-85
2024/02/29 13:57:17;;;;;;;2.60;1.83;;;;;;;;;;4987044;28;20496;-83
2024/02/29 13:59:43;;;;;;;3.67;2.20;;;;;;;;;;4995830;28;20458;-83
2024/02/29 14:02:10;;;;;;;3.23;2.07;;;;;;;;;;4998378;28;20430;-82
2024/02/29 14:04:36;;;;;;;2.13;1.80;;;;;;;;;;4996801;28;20423;-81
2024/02/29 14:07:04;;;;;;;2.67;1.77;;;;;;;;;;4994606;28;20477;-82
2024/02/29 14:09:30;;;;;;;2.37;1.97;;;;;;;;;;4996881;28;20437;-83
2024/02/29 14:11:56;;;;;;;3.07;2.07;;;;;;;;;;4996261;28;20426;-80
2024/02/29 14:14:22;;;;;;;2.57;1.50;;;;;;;;;;4997170;28;20989;-83
2024/02/29 14:16:48;;;;;;;4.77;2.57;;;;;;;;;;4993261;28;20466;-83
2024/02/29 14:19:14;;;;;;;2.93;1.60;;;;;;;;;;4996661;28;20425;-84
2024/02/29 14:21:40;;;;;;;2.37;1.80;;;;;;;;;;4989564;28;20472;-83
2024/02/29 14:24:06;;;;;;;3.80;1.90;;;;;;;;;;5000303;28;20434;-84
2024/02/29 14:26:32;;;;;;;2.53;1.80;;;;;;;;;;4978055;28;20857;-82